Time;durP1;ratioP1;P1;durP2;ratioP2;P2;SDS_P1;SDS_P2;PMS_P1;PMS_P2;Temp;Humidity;BMP_temperature;BMP_pressure;BME280_temperature;BME280_humidity;BME280_pressure;Samples;Min_cycle;Max_cycle;Signal;HPM_P1;HPM_P2
2023/03/31 00:02:13;;;;;;;;;19.25;16.00;;;;;8.83;93.99;97673.38;4905689;28;102303;-73
2023/03/31 00:04:58;;;;;;;;;18.25;16.00;;;;;8.82;94.16;97672.56;4905798;28;102892;-73
2023/03/31 00:07:47;;;;;;;;;14.75;12.75;;;;;8.88;93.64;97682.47;4909031;28;102073;-74
2023/03/31 00:10:41;;;;;;;;;11.50;10.00;;;;;8.90;93.54;97675.03;4914131;28;107864;-72
2023/03/31 00:13:38;;;;;;;;;10.75;9.50;;;;;8.89;93.36;97677.91;4909457;28;102295;-74
2023/03/31 00:16:22;;;;;;;;;10.50;9.50;;;;;8.90;93.47;97669.63;4899929;28;103380;-72
2023/03/31 00:19:16;;;;;;;;;12.75;12.25;;;;;8.88;93.16;97677.09;4916297;28;102118;-71
2023/03/31 00:22:06;;;;;;;;;16.25;15.25;;;;;8.88;93.14;97676.25;4916112;28;108887;-73
2023/03/31 00:24:44;;;;;;;;;14.50;12.50;;;;;8.91;93.40;97673.97;4916889;28;102263;-73
2023/03/31 00:27:12;;;;;;;;;12.25;11.00;;;;;8.91;92.97;97671.28;4918277;28;102221;-72
2023/03/31 00:29:42;;;;;;;;;14.00;11.75;;;;;8.91;92.85;97671.28;4917360;28;110386;-72
2023/03/31 00:32:09;;;;;;;;;8.25;7.00;;;;;8.91;93.09;97673.97;4907872;28;104180;-72
2023/03/31 00:34:37;;;;;;;;;9.50;9.00;;;;;8.92;93.31;97672.09;4902527;28;102763;-72
2023/03/31 00:37:04;;;;;;;;;10.75;9.25;;;;;8.89;92.98;97676.06;4910961;28;103182;-72
2023/03/31 00:39:34;;;;;;;;;13.25;11.25;;;;;8.85;93.07;97668.59;4913050;28;102145;-72
2023/03/31 00:42:02;;;;;;;;;9.50;9.00;;;;;8.87;93.57;97664.63;4913512;28;104175;-73
2023/03/31 00:44:32;;;;;;;;;10.00;9.00;;;;;8.78;93.46;97652.44;4906526;28;102613;-72
2023/03/31 00:47:23;;;;;;;;;9.00;7.75;;;;;8.86;92.99;97679.19;4914964;28;103647;-72
2023/03/31 00:49:58;;;;;;;;;7.00;6.50;;;;;8.82;93.26;97677.97;4910963;28;103667;-72
2023/03/31 00:52:34;;;;;;;;;8.25;7.75;;;;;8.79;93.46;97669.44;4909602;28;104011;-72
2023/03/31 00:55:07;;;;;;;;;10.00;9.00;;;;;8.74;93.82;97671.94;4908447;28;102582;-72
2023/03/31 00:57:40;;;;;;;;;9.00;8.00;;;;;8.70;94.09;97668.84;4906891;28;102377;-73
2023/03/31 01:00:17;;;;;;;;;15.00;10.75;;;;;8.66;94.11;97667.63;4911454;28;102286;-72
2023/03/31 01:02:58;;;;;;;;;11.75;9.25;;;;;8.67;93.80;97679.22;4908196;28;108906;-72
2023/03/31 01:05:31;;;;;;;;;10.25;9.25;;;;;8.65;93.73;97675.91;4910545;28;102173;-73
2023/03/31 01:08:15;;;;;;;;;8.25;7.25;;;;;8.64;94.09;97672.41;4911362;28;101975;-73
2023/03/31 01:11:15;;;;;;;;;12.75;10.50;;;;;8.61;94.16;97672.81;4912984;28;102600;-72
2023/03/31 01:13:58;;;;;;;;;8.00;8.00;;;;;8.61;94.36;97667.44;4916089;28;107573;-72
2023/03/31 01:16:42;;;;;;;;;11.25;9.00;;;;;8.60;93.93;97662.28;4915370;28;102110;-73
2023/03/31 01:19:33;;;;;;;;;12.50;10.25;;;;;8.56;94.12;97655.63;4909706;28;102394;-72
2023/03/31 01:22:44;;;;;;;;;13.25;11.50;;;;;8.56;94.12;97661.84;4914533;28;102992;-73
2023/03/31 01:26:00;;;;;;;;;15.25;12.75;;;;;8.52;93.91;97663.31;4906748;28;109578;-73
2023/03/31 01:29:05;;;;;;;;;15.00;14.25;;;;;8.49;93.97;97663.72;4912888;28;102425;-73
2023/03/31 01:32:00;;;;;;;;;16.50;10.75;;;;;8.48;93.89;97659.38;4906602;28;102362;-72
2023/03/31 01:34:56;;;;;;;;;13.50;10.75;;;;;8.49;94.19;97655.66;4911530;28;102084;-72
2023/03/31 01:37:47;;;;;;;;;11.00;10.50;;;;;8.49;93.80;97650.25;4908250;28;108780;-72
2023/03/31 01:40:23;;;;;;;;;10.50;9.50;;;;;8.47;94.35;97644.25;4910208;28;102444;-72
2023/03/31 01:43:17;;;;;;;;;10.00;7.75;;;;;8.48;93.62;97654.81;4900895;28;102957;-72
2023/03/31 01:45:50;;;;;;;;;7.00;6.00;;;;;8.46;93.83;97656.09;4909185;28;102472;-73
2023/03/31 01:48:29;;;;;;;;;6.25;4.00;;;;;8.47;93.66;97655.03;4906076;28;108944;-72
2023/03/31 01:51:09;;;;;;;;;5.00;5.00;;;;;8.45;94.04;97649.03;4906945;28;102458;-73
2023/03/31 01:54:00;;;;;;;;;10.00;10.00;;;;;8.40;93.57;97651.53;4903697;28;102217;-73
2023/03/31 01:56:33;;;;;;;;;14.00;12.25;;;;;8.35;94.31;97652.16;4908509;28;102043;-73
2023/03/31 01:59:22;;;;;;;;;10.25;10.00;;;;;8.31;94.09;97664.38;4926941;28;103948;-73
2023/03/31 02:01:55;;;;;;;;;13.50;11.00;;;;;8.27;93.77;97654.22;4914323;28;103551;-73
2023/03/31 02:04:35;;;;;;;;;15.50;12.00;;;;;8.23;94.04;97661.06;4907969;28;103132;-73
2023/03/31 02:07:10;;;;;;;;;14.75;9.75;;;;;8.16;94.48;97655.66;4910330;28;102357;-71
2023/03/31 02:09:42;;;;;;;;;9.00;8.25;;;;;8.11;94.63;97651.94;4910416;28;104011;-71
2023/03/31 02:12:11;;;;;;;;;7.50;7.50;;;;;8.08;95.06;97654.03;4913506;28;111267;-71
2023/03/31 02:14:46;;;;;;;;;10.50;9.50;;;;;8.00;95.06;97654.25;4908332;28;102420;-72
2023/03/31 02:17:21;;;;;;;;;9.00;7.50;;;;;8.00;95.28;97664.19;4901895;28;102164;-72
2023/03/31 02:19:51;;;;;;;;;8.00;7.00;;;;;7.99;95.60;97659.81;4917146;28;108852;-72
2023/03/31 02:22:22;;;;;;;;;8.75;8.25;;;;;7.93;95.62;97648.03;4912642;28;102057;-72
2023/03/31 02:24:52;;;;;;;;;7.75;5.00;;;;;7.96;95.14;97650.31;4914192;28;102119;-70
2023/03/31 02:27:30;;;;;;;;;5.50;5.00;;;;;7.93;95.38;97639.13;4911874;28;102368;-72
2023/03/31 02:29:58;;;;;;;;;9.00;7.25;;;;;7.94;96.08;97651.53;4909147;28;108853;-71
2023/03/31 02:32:36;;;;;;;;;4.00;4.00;;;;;7.94;95.98;97640.78;4912464;28;102473;-71
2023/03/31 02:35:06;;;;;;;;;5.00;4.75;;;;;7.94;95.27;97646.16;4910089;28;102222;-71
2023/03/31 02:37:33;;;;;;;;;6.25;4.00;;;;;7.88;95.44;97636.25;4905671;28;101982;-72
2023/03/31 02:40:09;;;;;;;;;3.75;3.00;;;;;7.92;95.58;97643.69;4914102;28;105074;-71
2023/03/31 02:42:39;;;;;;;;;8.75;7.00;;;;;7.96;95.48;97644.09;4911327;28;102219;-73
2023/03/31 02:45:27;;;;;;;;;3.75;3.75;;;;;7.97;95.62;97641.19;4908523;28;102369;-73
2023/03/31 02:47:54;;;;;;;;;6.50;4.00;;;;;7.99;96.06;97643.69;4908179;28;102197;-71
2023/03/31 02:50:29;;;;;;;;;5.25;5.25;;;;;7.98;95.03;97640.16;4913338;28;104035;-71
2023/03/31 02:53:15;;;;;;;;;9.50;7.50;;;;;7.99;95.40;97636.44;4910786;28;102594;-71
2023/03/31 02:55:57;;;;;;;;;7.50;6.25;;;;;8.00;95.50;97643.47;4905661;28;102292;-72
2023/03/31 02:58:29;;;;;;;;;8.00;7.75;;;;;8.01;95.00;97637.03;4910437;28;102098;-71
2023/03/31 03:01:28;;;;;;;;;7.50;5.00;;;;;8.02;95.33;97636.00;4915718;28;103145;-72
2023/03/31 03:04:24;;;;;;;;;5.00;5.00;;;;;8.03;95.32;97634.97;4907334;28;102537;-72
2023/03/31 03:07:09;;;;;;;;;7.50;6.00;;;;;8.01;95.60;97634.34;4916576;28;101893;-72
2023/03/31 03:10:01;;;;;;;;;8.00;7.25;;;;;8.01;95.30;97634.34;4926568;28;102324;-72
2023/03/31 03:12:40;;;;;;;;;7.75;5.50;;;;;8.00;94.99;97639.94;4904462;28;108739;-72
2023/03/31 03:15:13;;;;;;;;;8.00;7.00;;;;;8.01;95.23;97636.22;4895823;28;102001;-72
2023/03/31 03:17:44;;;;;;;;;9.25;6.75;;;;;8.02;94.75;97632.47;4920421;28;101961;-72
2023/03/31 03:20:13;;;;;;;;;5.00;5.00;;;;;8.01;94.53;97631.66;4917931;28;102173;-72
2023/03/31 03:22:40;;;;;;;;;7.00;5.50;;;;;8.01;95.02;97637.03;4912243;28;104206;-72
2023/03/31 03:25:10;;;;;;;;;4.00;4.00;;;;;7.99;95.20;97633.75;4921012;28;102053;-72
2023/03/31 03:27:38;;;;;;;;;4.00;4.00;;;;;8.00;95.12;97640.78;4918393;28;102784;-71
2023/03/31 03:30:07;;;;;;;;;7.50;6.00;;;;;8.00;94.40;97638.09;4930107;28;102149;-71
2023/03/31 03:32:34;;;;;;;;;4.25;4.00;;;;;8.01;94.82;97637.03;4914895;28;110838;-71
2023/03/31 03:35:03;;;;;;;;;3.75;3.75;;;;;8.04;94.38;97639.34;4919677;28;102160;-71
2023/03/31 03:37:30;;;;;;;;;4.75;4.25;;;;;8.02;94.71;97627.09;4917538;28;102128;-71
2023/03/31 03:39:57;;;;;;;;;4.50;4.00;;;;;8.01;94.49;97633.53;4914334;28;103137;-71
2023/03/31 03:42:24;;;;;;;;;3.75;3.75;;;;;8.00;94.41;97623.81;4916525;28;107369;-71
2023/03/31 03:44:51;;;;;;;;;5.00;4.00;;;;;7.99;94.74;97632.91;4917458;28;102023;-72
2023/03/31 03:47:18;;;;;;;;;5.00;5.00;;;;;7.96;94.49;97617.19;4920720;28;102320;-72
2023/03/31 03:49:47;;;;;;;;;5.25;4.00;;;;;7.98;94.78;97626.69;4915616;28;102038;-72
2023/03/31 03:52:15;;;;;;;;;4.00;4.00;;;;;7.97;94.23;97619.66;4916100;28;104039;-72
2023/03/31 03:54:42;;;;;;;;;8.00;6.50;;;;;7.95;94.78;97616.34;4909185;28;102430;-72
2023/03/31 03:57:09;;;;;;;;;5.25;4.50;;;;;7.97;95.06;97625.03;4917091;28;102538;-72
2023/03/31 03:59:36;;;;;;;;;2.75;2.75;;;;;7.98;94.96;97617.78;4921315;28;102213;-72
2023/03/31 04:02:03;;;;;;;;;7.00;6.50;;;;;7.96;94.60;97617.19;4917385;28;104036;-72
2023/03/31 04:04:30;;;;;;;;;6.50;6.00;;;;;7.96;94.67;97609.13;4914398;28;102096;-73
2023/03/31 04:06:57;;;;;;;;;4.00;3.00;;;;;7.97;94.18;97608.09;4919753;28;103248;-74
2023/03/31 04:09:24;;;;;;;;;6.00;5.00;;;;;7.95;94.79;97605.59;4915776;28;102341;-72
2023/03/31 04:11:51;;;;;;;;;5.00;5.00;;;;;7.94;94.90;97603.94;4909971;28;103964;-71
2023/03/31 04:14:18;;;;;;;;;7.00;5.00;;;;;7.95;94.86;97602.06;4913698;28;101989;-72
2023/03/31 04:16:45;;;;;;;;;8.25;5.50;;;;;7.94;95.10;97609.31;4912362;28;102264;-75
2023/03/31 04:19:16;;;;;;;;;2.50;2.50;;;;;7.93;94.46;97596.88;4911021;28;101957;-71
2023/03/31 04:21:57;;;;;;;;;7.00;5.25;;;;;7.93;94.25;97593.34;4912865;28;104240;-70
2023/03/31 04:24:29;;;;;;;;;6.50;3.75;;;;;7.91;94.25;97592.75;4910914;28;102161;-69
2023/03/31 04:26:57;;;;;;;;;5.50;5.50;;;;;7.89;94.63;97592.13;4911371;28;102893;-71
2023/03/31 04:29:25;;;;;;;;;5.00;5.00;;;;;7.88;94.92;97593.97;4912002;28;102311;-71
2023/03/31 04:31:57;;;;;;;;;4.25;4.25;;;;;7.87;94.39;97586.13;4909422;28;104034;-71
2023/03/31 04:34:33;;;;;;;;;10.25;8.50;;;;;7.85;94.98;97593.56;4904932;28;103563;-71
2023/03/31 04:37:02;;;;;;;;;7.00;6.00;;;;;7.84;94.94;97584.69;4913307;28;103245;-71
2023/03/31 04:39:30;;;;;;;;;10.25;7.75;;;;;7.85;94.69;97591.72;4920377;28;102238;-72
2023/03/31 04:41:58;;;;;;;;;10.00;9.00;;;;;7.70;94.38;97552.63;4917957;28;104132;-71
2023/03/31 04:44:25;;;;;;;;;11.25;10.00;;;;;7.84;94.43;97587.38;4910904;28;102552;-71
2023/03/31 04:46:53;;;;;;;;;12.25;10.50;;;;;7.82;94.10;97589.44;4903956;28;101889;-70
2023/03/31 04:49:21;;;;;;;;;11.25;10.25;;;;;7.80;94.19;97586.13;4909711;28;102063;-70
2023/03/31 04:51:48;;;;;;;;;10.00;8.75;;;;;7.67;93.98;97570.00;4912553;28;104052;-71
2023/03/31 04:54:15;;;;;;;;;10.00;8.50;;;;;7.68;94.43;97571.66;4915895;28;102050;-71
2023/03/31 04:56:42;;;;;;;;;11.75;9.75;;;;;7.68;95.03;97577.03;4913715;28;101842;-71
2023/03/31 04:59:09;;;;;;;;;9.00;7.00;;;;;7.68;94.56;97578.91;4915253;28;101896;-71
2023/03/31 05:01:36;;;;;;;;;12.00;9.00;;;;;7.65;94.59;97576.63;4916575;28;104187;-73
2023/03/31 05:04:04;;;;;;;;;8.25;8.25;;;;;7.62;95.18;97565.25;4916342;28;102229;-73
2023/03/31 05:06:32;;;;;;;;;10.50;7.50;;;;;7.62;95.14;97567.94;4912040;28;102344;-70
2023/03/31 05:08:59;;;;;;;;;8.00;5.50;;;;;7.59;94.55;97556.75;4911056;28;101966;-71
2023/03/31 05:11:26;;;;;;;;;11.00;7.50;;;;;7.62;94.64;97561.72;4909767;28;103993;-71
2023/03/31 05:13:53;;;;;;;;;9.25;8.00;;;;;7.58;94.97;97561.31;4901988;28;102121;-71
2023/03/31 05:16:20;;;;;;;;;6.00;5.00;;;;;7.61;95.11;97562.75;4915534;28;103231;-71
2023/03/31 05:18:47;;;;;;;;;8.00;7.25;;;;;7.60;95.17;97561.13;4915246;28;102068;-71
2023/03/31 05:21:17;;;;;;;;;7.75;7.25;;;;;7.61;94.83;97565.44;4908218;28;103992;-72
2023/03/31 05:23:45;;;;;;;;;6.50;5.25;;;;;7.62;94.89;97551.78;4910347;28;101986;-71
2023/03/31 05:26:12;;;;;;;;;8.25;7.00;;;;;7.62;94.32;97543.72;4910364;28;102242;-71
2023/03/31 05:28:40;;;;;;;;;9.75;8.00;;;;;7.65;94.92;97547.88;4917414;28;101903;-72
2023/03/31 05:31:10;;;;;;;;;9.00;8.00;;;;;7.71;94.50;97532.75;4906504;28;103913;-71
2023/03/31 05:33:40;;;;;;;;;8.00;6.25;;;;;7.75;94.81;97534.81;4910063;28;102142;-70
2023/03/31 05:36:14;;;;;;;;;4.75;4.50;;;;;7.79;94.22;97535.22;4908869;28;103177;-71
2023/03/31 05:38:42;;;;;;;;;8.00;6.00;;;;;7.82;93.69;97543.72;4913596;28;106546;-73
2023/03/31 05:41:10;;;;;;;;;10.50;8.25;;;;;7.85;94.08;97545.13;4912583;28;104238;-73
2023/03/31 05:43:38;;;;;;;;;10.00;9.50;;;;;7.86;93.61;97536.88;4911963;28;101997;-71
2023/03/31 05:46:06;;;;;;;;;8.50;8.00;;;;;7.96;93.71;97537.28;4901782;28;101980;-71
2023/03/31 05:48:34;;;;;;;;;9.25;8.75;;;;;8.04;93.26;97541.59;4908682;28;102295;-72
2023/03/31 05:51:01;;;;;;;;;9.00;8.00;;;;;8.13;92.63;97539.50;4905054;28;104038;-70
2023/03/31 05:53:28;;;;;;;;;8.75;7.00;;;;;8.23;92.08;97542.56;4903249;28;102293;-71
2023/03/31 05:56:04;;;;;;;;;5.50;5.50;;;;;8.28;91.57;97535.53;4908296;28;102328;-70
2023/03/31 05:58:36;;;;;;;;;12.25;9.50;;;;;8.31;91.81;97539.69;4916025;28;102448;-71
2023/03/31 06:01:12;;;;;;;;;17.50;13.00;;;;;8.27;92.16;97538.41;4916394;28;103792;-72
2023/03/31 06:03:41;;;;;;;;;12.75;10.50;;;;;8.39;91.33;97536.75;4916924;28;102011;-72
2023/03/31 06:06:11;;;;;;;;;9.00;8.00;;;;;8.48;90.30;97535.47;4910215;28;102052;-72
2023/03/31 06:08:39;;;;;;;;;10.00;10.00;;;;;8.63;90.57;97536.03;4906380;28;102431;-72
2023/03/31 06:11:08;;;;;;;;;9.25;9.00;;;;;8.77;89.71;97529.53;4912432;28;104042;-72
2023/03/31 06:13:36;;;;;;;;;10.00;9.25;;;;;8.87;89.39;97534.44;4916089;28;102042;-73
2023/03/31 06:16:04;;;;;;;;;10.25;6.50;;;;;9.13;89.26;97539.69;4905892;28;102877;-73
2023/03/31 06:18:33;;;;;;;;;8.00;7.00;;;;;9.16;87.38;97524.91;4914332;28;102193;-72
2023/03/31 06:21:01;;;;;;;;;10.00;8.75;;;;;9.27;86.42;97516.13;4911805;28;104064;-71
2023/03/31 06:23:28;;;;;;;;;4.50;4.25;;;;;9.48;86.39;97534.63;4911684;28;102502;-72
2023/03/31 06:26:02;;;;;;;;;10.50;8.50;;;;;9.72;85.60;97541.91;4912537;28;102338;-69
2023/03/31 06:28:30;;;;;;;;;5.50;5.00;;;;;10.44;82.95;97529.53;4916243;28;102328;-71
2023/03/31 06:31:05;;;;;;;;;8.75;7.00;;;;;11.11;78.89;97527.59;4911824;28;104031;-71
2023/03/31 06:33:33;;;;;;;;;8.75;7.50;;;;;11.65;76.67;97537.38;4914955;28;102092;-71
2023/03/31 06:36:02;;;;;;;;;7.25;7.25;;;;;11.93;75.30;97536.72;4905210;28;103194;-71
2023/03/31 06:38:30;;;;;;;;;9.00;5.00;;;;;12.42;74.06;97533.50;4901796;28;102295;-71
2023/03/31 06:40:57;;;;;;;;;5.25;5.00;;;;;12.21;73.19;97520.53;4912019;28;103982;-71
2023/03/31 06:43:24;;;;;;;;;4.75;4.75;;;;;11.93;73.19;97529.38;4911503;28;102026;-72
2023/03/31 06:45:54;;;;;;;;;4.50;4.50;;;;;11.78;74.96;97530.94;4912568;28;102517;-73
2023/03/31 06:48:24;;;;;;;;;5.00;4.00;;;;;11.90;74.86;97526.34;4912126;28;102270;-72
2023/03/31 06:50:53;;;;;;;;;3.50;3.00;;;;;12.04;74.26;97522.31;4912744;28;108913;-72
2023/03/31 06:53:21;;;;;;;;;3.00;3.00;;;;;12.36;73.18;97518.16;4909226;28;102213;-72
2023/03/31 06:55:47;;;;;;;;;3.25;3.00;;;;;12.56;72.02;97512.34;4914861;28;102256;-69
2023/03/31 06:58:14;;;;;;;;;3.00;3.00;;;;;12.74;71.74;97511.34;4912556;28;102317;-72
2023/03/31 07:00:43;;;;;;;;;4.25;3.50;;;;;12.62;70.64;97513.25;4915767;28;104052;-71
2023/03/31 07:03:11;;;;;;;;;2.75;2.50;;;;;12.30;72.45;97521.00;4907017;28;102467;-71
2023/03/31 07:05:38;;;;;;;;;3.00;3.00;;;;;12.17;72.58;97519.38;4914074;28;102284;-70
2023/03/31 07:08:05;;;;;;;;;6.00;5.00;;;;;11.91;72.66;97511.75;4897945;28;102205;-70
2023/03/31 07:10:32;;;;;;;;;4.00;3.25;;;;;11.89;73.58;97514.66;4895676;28;104152;-71
2023/03/31 07:12:59;;;;;;;;;4.00;4.00;;;;;11.81;75.14;97506.06;4904450;28;102031;-70
2023/03/31 07:15:29;;;;;;;;;5.75;4.00;;;;;11.86;73.85;97508.91;4903255;28;102125;-72
2023/03/31 07:18:00;;;;;;;;;4.00;4.00;;;;;11.84;75.64;97489.38;4913958;28;102428;-70
2023/03/31 07:20:29;;;;;;;;;2.25;2.25;;;;;12.13;74.56;97510.06;4913743;28;103664;-72
2023/03/31 07:22:56;;;;;;;;;3.00;2.00;;;;;11.92;73.26;97505.25;4927693;28;102711;-71
2023/03/31 07:25:23;;;;;;;;;5.00;5.00;;;;;11.89;74.54;97509.25;4915685;28;102376;-73
2023/03/31 07:27:50;;;;;;;;;3.25;3.00;;;;;12.14;74.66;97497.34;4910624;28;102048;-71
2023/03/31 07:30:19;;;;;;;;;2.00;1.25;;;;;12.36;74.00;97493.78;4911686;28;104002;-71
2023/03/31 07:32:50;;;;;;;;;2.75;2.00;;;;;12.55;72.64;97496.31;4912090;28;101901;-72
2023/03/31 07:35:18;;;;;;;;;3.00;3.00;;;;;12.40;72.49;97494.94;4904673;28;102073;-70
2023/03/31 07:37:47;;;;;;;;;3.00;2.00;;;;;12.46;72.65;97496.69;4907734;28;101970;-71
2023/03/31 07:40:17;;;;;;;;;2.00;2.00;;;;;12.64;71.36;97489.44;4906652;28;104395;-70
2023/03/31 07:42:46;;;;;;;;;3.50;2.00;;;;;12.83;71.90;97480.06;4913108;28;102141;-72
2023/03/31 07:45:15;;;;;;;;;2.00;2.00;;;;;12.96;70.36;97491.44;4912406;28;102050;-71
2023/03/31 08:34:24;;;;;;;;;1.75;1.00;;;;;13.54;68.08;97430.56;5006636;27;102753;-71
2023/03/31 08:36:51;;;;;;;;;2.00;1.00;;;;;13.74;66.90;97424.59;5029674;27;102356;-70
2023/03/31 08:39:18;;;;;;;;;1.00;1.00;;;;;13.96;66.30;97421.94;4940934;27;103997;-70
2023/03/31 08:41:57;;;;;;;;;2.50;1.00;;;;;14.24;65.92;97410.84;4992377;28;103071;-71
2023/03/31 08:44:36;;;;;;;;;0.50;0.50;;;;;14.49;64.70;97403.03;4993162;28;102171;-70
2023/03/31 08:47:06;;;;;;;;;1.75;1.75;;;;;14.82;64.86;97409.34;4997055;27;102235;-69
2023/03/31 08:49:46;;;;;;;;;1.00;1.00;;;;;15.00;63.32;97385.31;4998478;27;103916;-70
2023/03/31 08:52:22;;;;;;;;;1.00;1.00;;;;;15.12;62.08;97388.69;4997328;27;103254;-70
2023/03/31 08:54:55;;;;;;;;;2.00;2.00;;;;;15.20;61.09;97390.09;4975555;28;103638;-71
2023/03/31 08:57:45;;;;;;;;;3.33;1.00;;;;;15.11;61.70;97389.78;4991037;28;102170;-70
2023/03/31 09:00:17;;;;;;;;;2.00;2.00;;;;;15.17;62.12;97377.03;4999790;27;103984;-70
2023/03/31 09:02:59;;;;;;;;;4.67;4.00;;;;;14.63;61.25;97370.81;4997219;27;102177;-70
2023/03/31 09:05:43;;;;;;;;;3.67;3.00;;;;;14.33;63.45;97363.09;4997490;27;102693;-70
2023/03/31 09:08:41;;;;;;;;;3.00;3.00;;;;;14.59;62.68;97367.75;5001076;27;102270;-70
2023/03/31 09:11:44;;;;;;;;;2.00;2.00;;;;;14.53;61.87;97360.66;4989945;27;104001;-70
2023/03/31 09:14:41;;;;;;;;;3.00;2.33;;;;;14.74;61.55;97351.59;5001335;27;102271;-70
2023/03/31 09:17:22;;;;;;;;;2.67;1.00;;;;;14.75;61.66;97344.25;4999265;27;103038;-71
2023/03/31 09:19:55;;;;;;;;;1.67;1.00;;;;;15.06;61.15;97346.16;5004377;27;102239;-70
2023/03/31 09:22:29;;;;;;;;;0.00;0.00;;;;;15.26;59.73;97345.50;4997828;27;104050;-70
2023/03/31 09:25:25;;;;;;;;;1.33;1.00;;;;;15.24;59.12;97338.66;4968667;28;102235;-71
2023/03/31 09:27:56;;;;;;;;;0.00;0.00;;;;;15.40;59.60;97340.44;4980799;28;102308;-69
2023/03/31 09:30:33;;;;;;;;;0.00;0.00;;;;;15.58;60.04;97343.53;4985199;27;102297;-69
2023/03/31 09:33:22;;;;;;;;;2.00;1.33;;;;;15.46;59.54;97347.53;5002814;27;104217;-70
2023/03/31 09:35:49;;;;;;;;;2.00;1.67;;;;;15.48;59.74;97334.47;4989699;28;102355;-70
2023/03/31 09:38:17;;;;;;;;;1.00;1.00;;;;;15.59;58.78;97325.28;4982338;28;102229;-70
2023/03/31 09:40:44;;;;;;;;;1.00;1.00;;;;;15.69;60.98;97328.09;4974693;28;102525;-70
2023/03/31 09:43:22;;;;;;;;;1.00;1.00;;;;;15.84;59.34;97314.53;5002049;27;104277;-71
2023/03/31 09:45:50;;;;;;;;;2.00;2.00;;;;;15.74;59.90;97319.94;4985693;28;102405;-68
2023/03/31 09:48:35;;;;;;;;;2.33;2.00;;;;;15.95;60.76;97312.66;4990137;28;102427;-69
2023/03/31 09:51:17;;;;;;;;;1.67;1.67;;;;;15.96;57.81;97292.50;4992956;28;102609;-70
2023/03/31 09:54:17;;;;;;;;;1.00;1.00;;;;;16.16;57.47;97294.47;4983151;28;104042;-70
2023/03/31 09:56:51;;;;;;;;;3.67;3.00;;;;;15.71;59.32;97293.22;4951856;28;102052;-70
2023/03/31 09:59:30;;;;;;;;;3.00;3.00;;;;;15.68;57.92;97285.56;4971664;28;102457;-70
2023/03/31 10:02:01;;;;;;;;;4.00;3.00;;;;;15.81;60.67;97281.53;4981318;28;102491;-69
2023/03/31 10:04:34;;;;;;;;;3.00;3.00;;;;;15.94;57.52;97279.13;4978516;28;104020;-70
2023/03/31 10:07:04;;;;;;;;;2.00;2.00;;;;;16.14;57.33;97267.47;4989346;28;102443;-70
2023/03/31 10:09:33;;;;;;;;;4.00;3.00;;;;;16.07;56.59;97261.47;4993014;28;102803;-70
2023/03/31 10:12:15;;;;;;;;;2.33;2.00;;;;;16.26;56.87;97275.38;4993546;28;102106;-70
2023/03/31 10:14:47;;;;;;;;;3.67;3.00;;;;;16.13;55.17;97278.63;4972595;28;104056;-69
2023/03/31 10:17:17;;;;;;;;;2.33;1.67;;;;;16.01;55.34;97282.44;4970511;28;102291;-70
2023/03/31 10:19:53;;;;;;;;;2.00;2.00;;;;;15.85;56.40;97282.66;4989280;28;104289;-72
2023/03/31 10:22:20;;;;;;;;;3.00;2.67;;;;;15.35;58.07;97289.47;4988429;28;102400;-71
2023/03/31 10:24:49;;;;;;;;;2.00;1.00;;;;;15.40;57.71;97275.84;4977442;28;104148;-70
2023/03/31 10:27:26;;;;;;;;;4.00;4.00;;;;;15.15;59.00;97283.88;4988933;28;102253;-69
2023/03/31 10:29:58;;;;;;;;;3.00;2.00;;;;;15.28;59.83;97282.59;4962654;28;103102;-70
2023/03/31 10:32:28;;;;;;;;;1.00;1.00;;;;;15.40;59.68;97278.56;4970410;28;102542;-70
2023/03/31 10:34:57;;;;;;;;;2.00;2.00;;;;;15.25;59.79;97283.13;4967289;28;103863;-70
2023/03/31 10:37:27;;;;;;;;;3.00;3.00;;;;;15.21;59.95;97274.66;4975306;28;103342;-70
2023/03/31 10:40:13;;;;;;;;;6.00;5.33;;;;;15.21;59.20;97276.56;4971156;28;102552;-70
2023/03/31 10:42:45;;;;;;;;;5.00;5.00;;;;;15.09;60.83;97274.84;4973435;28;102846;-70
2023/03/31 10:45:30;;;;;;;;;10.00;8.67;;;;;14.88;60.20;97267.63;4990195;28;105196;-71
2023/03/31 10:48:05;;;;;;;;;4.00;4.00;;;;;14.85;60.91;97279.03;4987078;28;102343;-70
2023/03/31 10:50:35;;;;;;;;;5.67;5.67;;;;;14.76;61.61;97260.72;4989124;28;102441;-70
2023/03/31 10:53:12;;;;;;;;;5.67;4.00;;;;;14.70;61.74;97222.59;4991328;28;102387;-70
2023/03/31 10:56:02;;;;;;;;;6.00;5.67;;;;;14.98;61.58;97261.44;4988753;28;103894;-69
2023/03/31 10:58:43;;;;;;;;;3.00;3.00;;;;;15.02;61.30;97260.66;4980442;28;106839;-70
2023/03/31 11:01:27;;;;;;;;;6.00;6.00;;;;;14.75;62.15;97262.63;4966176;28;102602;-70
2023/03/31 11:03:55;;;;;;;;;3.00;3.00;;;;;14.89;61.53;97250.22;4985447;28;102014;-70
2023/03/31 11:06:44;;;;;;;;;4.33;4.33;;;;;15.04;61.62;97244.88;4989317;28;104015;-70
2023/03/31 11:09:23;;;;;;;;;3.00;3.00;;;;;15.03;61.12;97250.59;4990239;28;103272;-71
2023/03/31 11:12:09;;;;;;;;;3.00;3.00;;;;;14.86;61.37;97256.16;4983329;28;101855;-70
2023/03/31 11:15:06;;;;;;;;;1.00;1.00;;;;;14.79;62.13;97246.59;4987991;28;102044;-70
2023/03/31 11:18:05;;;;;;;;;3.00;3.00;;;;;14.66;63.59;97237.81;4979858;28;108840;-71
2023/03/31 11:21:10;;;;;;;;;2.00;2.00;;;;;14.75;63.25;97240.88;4971923;28;102687;-70
2023/03/31 11:23:41;;;;;;;;;2.00;2.00;;;;;14.61;63.37;97228.78;4971915;28;102702;-69
2023/03/31 11:26:30;;;;;;;;;1.33;1.33;;;;;14.72;62.92;97214.97;4989747;28;102062;-70
2023/03/31 11:29:24;;;;;;;;;2.00;2.00;;;;;14.65;63.19;97217.13;4985526;28;108051;-70
2023/03/31 11:31:58;;;;;;;;;1.00;1.00;;;;;14.70;62.43;97211.72;4959141;28;102059;-70
2023/03/31 11:34:46;;;;;;;;;3.33;2.00;;;;;14.67;62.38;97204.09;4990019;28;102823;-70
2023/03/31 11:37:40;;;;;;;;;2.00;1.33;;;;;14.70;62.91;97208.16;4990154;28;102848;-70
2023/03/31 11:40:37;;;;;;;;;1.00;1.00;;;;;14.81;62.93;97206.34;4970206;28;107425;-70
2023/03/31 11:43:10;;;;;;;;;3.33;2.00;;;;;14.98;62.01;97207.81;4981872;28;102133;-70
2023/03/31 11:45:52;;;;;;;;;2.00;1.00;;;;;15.09;61.83;97189.63;4975514;28;102089;-71
2023/03/31 11:48:45;;;;;;;;;3.00;1.67;;;;;15.37;60.52;97180.22;4973744;28;102388;-71
2023/03/31 11:51:25;;;;;;;;;1.00;1.00;;;;;15.56;59.83;97192.34;4968489;28;108185;-71
2023/03/31 11:53:55;;;;;;;;;2.00;1.33;;;;;15.65;60.34;97174.38;4957054;28;102118;-70
2023/03/31 11:56:25;;;;;;;;;1.00;1.00;;;;;15.96;59.34;97169.81;4967212;28;102253;-70
2023/03/31 11:58:56;;;;;;;;;1.00;1.00;;;;;16.21;59.01;97167.09;4975549;28;102156;-70
2023/03/31 12:01:35;;;;;;;;;1.00;0.00;;;;;16.24;57.36;97150.22;4973003;28;104005;-69
2023/03/31 12:04:08;;;;;;;;;3.00;1.00;;;;;16.27;58.60;97148.84;4972484;28;102130;-69
2023/03/31 12:06:40;;;;;;;;;1.33;1.33;;;;;16.16;58.59;97153.50;4987678;28;102498;-70
2023/03/31 12:09:22;;;;;;;;;3.00;2.00;;;;;15.95;57.51;97136.28;4989472;28;102489;-69
2023/03/31 12:11:59;;;;;;;;;2.67;2.00;;;;;15.83;57.93;97130.28;4987700;28;108963;-70
2023/03/31 12:14:33;;;;;;;;;1.00;1.00;;;;;15.85;58.19;97124.56;4984121;28;102418;-70
2023/03/31 12:17:09;;;;;;;;;1.00;1.00;;;;;15.84;57.84;97126.47;4971778;28;101809;-70
2023/03/31 12:20:09;;;;;;;;;3.67;2.67;;;;;15.84;57.54;97112.00;4971882;28;102011;-70
2023/03/31 12:22:42;;;;;;;;;5.67;4.33;;;;;15.98;58.52;97107.66;4969786;28;108058;-69
2023/03/31 12:25:21;;;;;;;;;4.00;4.00;;;;;16.16;55.37;97109.03;4970453;28;102475;-70
2023/03/31 12:27:50;;;;;;;;;4.67;4.00;;;;;16.23;56.12;97099.47;4980827;28;102587;-70
2023/03/31 12:30:33;;;;;;;;;3.00;3.00;;;;;16.34;53.15;97097.56;4995797;28;102127;-69
2023/03/31 12:33:17;;;;;;;;;4.67;4.00;;;;;16.37;53.13;97088.81;4981241;28;108236;-69
2023/03/31 12:35:58;;;;;;;;;4.00;3.33;;;;;16.39;52.65;97078.47;4990974;28;102468;-69
2023/03/31 12:38:43;;;;;;;;;2.67;2.67;;;;;16.40;53.60;97086.38;4985183;28;102428;-69
2023/03/31 12:41:44;;;;;;;;;2.33;2.33;;;;;16.73;51.76;97070.50;4990416;28;102412;-70
2023/03/31 12:44:29;;;;;;;;;3.00;3.00;;;;;16.83;52.42;97068.56;4972480;28;108578;-69
2023/03/31 12:47:05;;;;;;;;;1.00;1.00;;;;;16.76;51.90;97062.56;4984289;28;102283;-71
2023/03/31 12:49:40;;;;;;;;;2.00;1.00;;;;;16.73;50.96;97062.31;4986676;28;102902;-69
2023/03/31 12:52:18;;;;;;;;;1.00;1.00;;;;;16.54;51.49;97053.88;4979280;28;103003;-69